createdAt,value
2023-05-05T00:00:13.158Z,21.90
2023-05-05T00:02:40.429Z,21.90
2023-05-05T00:05:08.765Z,21.90
2023-05-05T00:07:36.485Z,21.80
2023-05-05T00:10:03.846Z,21.80
2023-05-05T00:12:31.004Z,21.90
2023-05-05T00:14:57.924Z,21.80
2023-05-05T00:17:24.816Z,21.70
2023-05-05T00:19:51.644Z,21.70
2023-05-05T00:22:18.511Z,21.70
2023-05-05T00:24:45.605Z,21.70
2023-05-05T00:27:12.445Z,21.60
2023-05-05T00:29:39.284Z,21.60
2023-05-05T00:32:06.353Z,21.60
2023-05-05T00:34:33.179Z,21.60
2023-05-05T00:37:00.078Z,21.60
2023-05-05T00:39:27.180Z,21.60
2023-05-05T00:41:54.312Z,21.60
2023-05-05T00:44:37.054Z,21.60
2023-05-05T00:47:04.255Z,21.70
2023-05-05T00:49:31.770Z,21.70
2023-05-05T00:51:59.517Z,21.70
2023-05-05T00:54:27.900Z,21.60
2023-05-05T00:56:55.042Z,21.50
2023-05-05T00:59:22.880Z,21.50
2023-05-05T01:01:50.835Z,21.50
2023-05-05T01:04:18.032Z,21.50
2023-05-05T01:06:57.577Z,21.60
2023-05-05T01:09:36.867Z,21.50
2023-05-05T01:12:40.420Z,21.50
2023-05-05T01:15:22.866Z,21.60
2023-05-05T01:17:54.559Z,21.60
2023-05-05T01:20:38.367Z,21.60
2023-05-05T01:23:14.562Z,21.60
2023-05-05T01:26:02.720Z,21.60
2023-05-05T01:29:03.021Z,21.70
2023-05-05T01:31:35.641Z,21.80
2023-05-05T01:34:07.589Z,21.80
2023-05-05T01:36:39.345Z,21.90
2023-05-05T01:39:12.703Z,22.00
2023-05-05T01:41:46.759Z,22.00
2023-05-05T01:44:16.664Z,22.10
2023-05-05T01:46:43.466Z,22.20
2023-05-05T01:49:13.033Z,22.20
2023-05-05T01:51:41.497Z,22.30
2023-05-05T01:54:09.572Z,22.30
2023-05-05T01:56:40.121Z,22.40
2023-05-05T01:59:07.956Z,22.40
2023-05-05T02:01:39.481Z,22.40
2023-05-05T02:04:10.044Z,22.40
2023-05-05T02:06:38.003Z,22.40
2023-05-05T02:09:05.856Z,22.40
2023-05-05T02:11:33.258Z,22.50
2023-05-05T02:14:02.220Z,22.60
2023-05-05T02:16:31.157Z,22.60
2023-05-05T02:19:01.821Z,22.60
2023-05-05T02:21:28.726Z,22.60
2023-05-05T02:23:55.713Z,22.50
2023-05-05T02:26:24.730Z,22.40
2023-05-05T02:28:58.146Z,22.50
2023-05-05T02:31:27.933Z,22.50
2023-05-05T02:33:57.969Z,22.50
2023-05-05T02:36:29.690Z,22.50
2023-05-05T02:39:03.387Z,22.40
2023-05-05T02:41:32.945Z,22.40
2023-05-05T02:44:02.359Z,22.40
2023-05-05T02:46:29.611Z,22.30
2023-05-05T02:48:56.531Z,22.30
2023-05-05T02:51:23.721Z,22.30
2023-05-05T02:53:52.325Z,22.20
2023-05-05T02:56:38.797Z,22.10
2023-05-05T02:59:34.319Z,22.10
2023-05-05T03:02:11.523Z,21.90
2023-05-05T03:04:49.169Z,21.80
2023-05-05T03:07:45.289Z,21.70
2023-05-05T03:10:21.768Z,21.50
2023-05-05T03:12:59.224Z,21.40
2023-05-05T03:15:31.227Z,21.30
2023-05-05T03:17:59.558Z,21.30
2023-05-05T03:20:26.750Z,21.20
2023-05-05T03:22:55.157Z,21.20
2023-05-05T03:25:22.364Z,21.20
2023-05-05T03:27:49.454Z,21.10
2023-05-05T03:30:16.155Z,21.10
2023-05-05T03:32:42.934Z,21.00
2023-05-05T03:35:09.947Z,21.00
2023-05-05T03:37:37.182Z,20.90
2023-05-05T03:40:04.066Z,20.90
2023-05-05T03:42:31.152Z,20.90
2023-05-05T03:44:58.146Z,20.80
2023-05-05T03:47:25.096Z,20.70
2023-05-05T03:49:52.549Z,20.70
2023-05-05T03:52:19.396Z,20.60
2023-05-05T03:54:46.217Z,20.60
2023-05-05T03:57:13.120Z,20.60
2023-05-05T03:59:39.919Z,20.50
2023-05-05T04:02:06.779Z,20.50
2023-05-05T04:04:33.782Z,20.40
2023-05-05T04:07:01.042Z,20.40
2023-05-05T04:09:28.064Z,20.50
2023-05-05T04:11:54.854Z,20.50
2023-05-05T04:14:22.313Z,20.50
2023-05-05T04:16:49.163Z,20.40
2023-05-05T04:19:15.990Z,20.40
2023-05-05T04:21:42.814Z,20.30
2023-05-05T04:24:10.106Z,20.30
2023-05-05T04:26:37.449Z,20.20
2023-05-05T04:29:04.613Z,20.30
2023-05-05T04:31:32.165Z,20.20
2023-05-05T04:33:59.103Z,20.20
2023-05-05T04:36:26.253Z,20.20
2023-05-05T04:38:53.452Z,20.20
2023-05-05T04:41:20.256Z,20.20
2023-05-05T04:43:47.195Z,20.20
2023-05-05T04:46:14.133Z,20.10
2023-05-05T04:48:41.285Z,20.10
2023-05-05T04:51:08.286Z,20.20
2023-05-05T04:53:35.115Z,20.20
2023-05-05T04:56:01.935Z,20.20
2023-05-05T04:58:29.529Z,20.20
2023-05-05T05:00:56.404Z,20.20
2023-05-05T05:03:23.598Z,20.20
2023-05-05T05:05:50.777Z,20.30
2023-05-05T05:08:18.399Z,20.30
2023-05-05T05:10:45.666Z,20.40
2023-05-05T05:13:13.063Z,20.40
2023-05-05T05:15:40.648Z,20.40
2023-05-05T05:18:07.518Z,20.40
2023-05-05T05:20:34.936Z,20.50
2023-05-05T05:23:04.486Z,20.50
2023-05-05T05:25:31.704Z,20.60
2023-05-05T05:28:09.435Z,20.60
2023-05-05T05:30:37.249Z,20.70
2023-05-05T05:33:04.126Z,20.70
2023-05-05T05:35:31.589Z,20.80
2023-05-05T05:37:58.644Z,20.90
2023-05-05T05:40:25.496Z,21.00
2023-05-05T05:42:52.231Z,21.00
2023-05-05T05:45:19.045Z,21.00
2023-05-05T05:47:45.946Z,21.00
2023-05-05T05:50:12.904Z,21.20
2023-05-05T05:52:39.677Z,21.20
2023-05-05T05:55:07.616Z,21.20
2023-05-05T05:57:34.708Z,21.20
2023-05-05T06:00:05.422Z,21.30
2023-05-05T06:02:32.766Z,21.40
2023-05-05T06:04:59.826Z,21.50
2023-05-05T06:07:26.799Z,21.50
2023-05-05T06:09:53.972Z,21.70
2023-05-05T06:12:21.078Z,21.70
2023-05-05T06:14:48.047Z,21.80
2023-05-05T06:17:14.813Z,21.80
2023-05-05T06:19:41.717Z,21.80
2023-05-05T06:22:08.402Z,21.80
2023-05-05T06:24:35.355Z,22.00
2023-05-05T06:27:05.695Z,22.10
2023-05-05T06:29:32.560Z,22.10
2023-05-05T06:32:01.156Z,22.10
2023-05-05T06:34:28.190Z,22.20
2023-05-05T06:36:55.081Z,22.20
2023-05-05T06:39:21.775Z,22.30
2023-05-05T06:41:48.563Z,22.40
2023-05-05T06:44:15.371Z,22.40
2023-05-05T06:46:43.681Z,22.50
2023-05-05T06:49:10.735Z,22.60
2023-05-05T06:51:37.369Z,22.70
2023-05-05T06:54:04.515Z,22.80
2023-05-05T06:56:31.800Z,22.90
2023-05-05T06:58:58.898Z,22.90
2023-05-05T07:01:25.744Z,23.10
2023-05-05T07:03:52.670Z,23.10
2023-05-05T07:06:19.544Z,23.10
2023-05-05T07:08:46.355Z,23.10
2023-05-05T07:11:13.217Z,23.30
2023-05-05T07:13:40.070Z,23.20
2023-05-05T07:16:07.162Z,23.20
2023-05-05T07:18:34.029Z,23.30
2023-05-05T07:21:01.891Z,23.40
2023-05-05T07:23:28.958Z,23.30
2023-05-05T07:25:56.048Z,23.40
2023-05-05T07:28:22.835Z,23.40
2023-05-05T07:30:49.642Z,23.50
2023-05-05T07:33:16.493Z,23.60
2023-05-05T07:35:45.056Z,23.70
2023-05-05T07:38:16.929Z,23.80
2023-05-05T07:40:45.182Z,23.90
2023-05-05T07:43:12.031Z,24.00
2023-05-05T07:45:38.932Z,24.00
2023-05-05T07:48:07.119Z,24.20
2023-05-05T07:50:33.936Z,24.40
2023-05-05T07:53:10.895Z,24.50
2023-05-05T07:55:41.382Z,24.50
2023-05-05T07:58:08.703Z,24.50
2023-05-05T08:00:35.622Z,24.50
2023-05-05T08:03:02.533Z,24.60
2023-05-05T08:05:29.282Z,24.70
2023-05-05T08:07:56.776Z,24.70
2023-05-05T08:10:25.037Z,24.80
2023-05-05T08:12:51.779Z,24.90
2023-05-05T08:15:18.493Z,24.90
2023-05-05T08:17:52.931Z,25.00
2023-05-05T08:20:21.090Z,25.10
2023-05-05T08:22:48.144Z,25.30
2023-05-05T08:25:15.338Z,25.30
2023-05-05T08:27:43.234Z,25.50
2023-05-05T08:30:10.997Z,25.60
2023-05-05T08:32:38.510Z,25.70
2023-05-05T08:35:07.031Z,25.80
2023-05-05T08:37:34.529Z,25.90
2023-05-05T08:40:01.633Z,26.00
2023-05-05T08:42:38.175Z,26.20
2023-05-05T08:45:07.575Z,26.30
2023-05-05T08:47:35.702Z,26.40
2023-05-05T08:50:03.495Z,26.50
2023-05-05T08:52:39.482Z,26.60
2023-05-05T08:55:15.721Z,26.70
2023-05-05T08:57:53.190Z,26.80
2023-05-05T09:00:20.905Z,26.60
2023-05-05T09:02:48.363Z,26.40
2023-05-05T09:05:16.743Z,26.30
2023-05-05T09:07:44.612Z,26.20
2023-05-05T09:10:12.117Z,26.20
2023-05-05T09:12:42.886Z,26.10
2023-05-05T09:15:11.815Z,26.00
2023-05-05T09:17:41.038Z,26.00
2023-05-05T09:20:13.273Z,26.00
2023-05-05T09:22:47.555Z,26.10
2023-05-05T09:25:16.474Z,26.30
2023-05-05T09:27:46.387Z,26.30
2023-05-05T09:30:19.382Z,26.40
2023-05-05T09:32:51.478Z,26.60
2023-05-05T09:35:19.513Z,26.60
2023-05-05T09:37:47.151Z,26.70
2023-05-05T09:40:16.887Z,26.60
2023-05-05T09:42:45.421Z,26.60
2023-05-05T09:45:18.211Z,26.50
2023-05-05T09:47:46.660Z,26.50
2023-05-05T09:50:16.065Z,26.60
2023-05-05T09:52:43.391Z,26.70
2023-05-05T09:55:19.438Z,26.90
2023-05-05T09:57:47.598Z,27.00
2023-05-05T10:00:14.816Z,26.90
2023-05-05T10:02:42.116Z,26.80
2023-05-05T10:05:14.602Z,26.80
2023-05-05T10:07:43.205Z,26.90
2023-05-05T10:10:16.205Z,26.80
2023-05-05T10:12:43.770Z,26.80
2023-05-05T10:15:12.354Z,26.50
2023-05-05T10:20:21.550Z,25.60
2023-05-05T10:22:54.078Z,24.90
2023-05-05T10:25:36.564Z,24.50
2023-05-05T10:28:06.803Z,24.00
2023-05-05T10:30:39.552Z,23.60
2023-05-05T10:33:30.792Z,23.10
2023-05-05T10:36:02.596Z,22.80
2023-05-05T10:38:34.217Z,22.50
2023-05-05T10:41:04.356Z,22.30
2023-05-05T10:43:31.979Z,22.10
2023-05-05T10:45:59.663Z,22.00
2023-05-05T10:49:13.077Z,21.80
2023-05-05T10:51:54.956Z,21.60
2023-05-05T10:54:35.780Z,21.50
2023-05-05T10:57:08.322Z,21.40
2023-05-05T10:59:38.191Z,21.20
2023-05-05T11:02:25.655Z,21.20
2023-05-05T11:05:16.754Z,21.00
2023-05-05T11:07:45.287Z,20.90
2023-05-05T11:10:13.987Z,20.80
2023-05-05T11:12:59.397Z,20.70
2023-05-05T11:15:29.480Z,20.70
2023-05-05T11:18:07.884Z,20.70
2023-05-05T11:20:40.968Z,20.70
2023-05-05T11:23:08.226Z,20.70
2023-05-05T11:25:35.577Z,20.60
2023-05-05T11:28:09.768Z,20.60
2023-05-05T11:30:57.236Z,20.60
2023-05-05T11:33:32.614Z,20.60
2023-05-05T11:36:03.397Z,20.50
2023-05-05T11:38:53.331Z,20.50
2023-05-05T11:41:47.804Z,20.60
2023-05-05T11:44:33.961Z,20.70
2023-05-05T11:47:06.906Z,20.70
2023-05-05T11:49:38.066Z,20.70
2023-05-05T11:52:07.683Z,20.80
2023-05-05T11:54:40.739Z,20.80
2023-05-05T11:57:08.962Z,20.70
2023-05-05T11:59:49.668Z,20.70
2023-05-05T12:02:17.887Z,20.80
2023-05-05T12:04:45.128Z,20.80
2023-05-05T12:07:22.096Z,20.80
2023-05-05T12:09:50.138Z,20.90
2023-05-05T12:12:17.320Z,20.90
2023-05-05T12:14:52.570Z,20.90
2023-05-05T12:17:24.545Z,20.90
2023-05-05T12:19:55.724Z,20.80
2023-05-05T12:22:27.480Z,20.80
2023-05-05T12:24:58.972Z,20.90
2023-05-05T12:27:27.306Z,20.90
2023-05-05T12:29:55.556Z,20.90
2023-05-05T12:32:28.317Z,20.90
2023-05-05T12:34:57.932Z,20.90
2023-05-05T12:37:27.054Z,21.00
2023-05-05T12:39:55.288Z,21.00
2023-05-05T12:42:23.076Z,21.00
2023-05-05T12:44:50.747Z,21.10
2023-05-05T12:47:33.892Z,21.10
2023-05-05T12:50:03.405Z,21.10
2023-05-05T12:53:01.214Z,21.10
2023-05-05T12:55:46.143Z,21.20
2023-05-05T12:58:13.024Z,21.10
2023-05-05T13:00:42.182Z,21.20
2023-05-05T13:03:19.675Z,21.30
2023-05-05T13:05:50.352Z,21.30
2023-05-05T13:08:18.933Z,21.40
2023-05-05T13:10:58.474Z,21.40
2023-05-05T13:13:25.266Z,21.50
2023-05-05T13:15:53.635Z,21.50
2023-05-05T13:18:20.848Z,21.50
2023-05-05T13:20:48.358Z,21.50
2023-05-05T13:23:15.158Z,21.50
2023-05-05T13:25:41.927Z,21.60
2023-05-05T13:28:08.802Z,21.60
2023-05-05T13:30:35.725Z,21.60
2023-05-05T13:33:04.575Z,21.60
2023-05-05T13:35:32.841Z,21.60
2023-05-05T13:37:59.810Z,21.60
2023-05-05T13:40:26.964Z,21.60
2023-05-05T13:42:54.091Z,21.70
2023-05-05T13:45:21.699Z,21.60
2023-05-05T13:47:48.727Z,21.60
2023-05-05T13:50:15.566Z,21.60
2023-05-05T13:52:42.343Z,21.50
2023-05-05T13:55:09.825Z,21.40
2023-05-05T13:57:37.294Z,21.40
2023-05-05T14:00:04.579Z,21.40
2023-05-05T14:02:31.680Z,21.50
2023-05-05T14:04:58.637Z,21.50
2023-05-05T14:07:25.542Z,21.40
2023-05-05T14:09:52.534Z,21.30
2023-05-05T14:12:19.376Z,21.30
2023-05-05T14:14:46.629Z,21.30
2023-05-05T14:17:13.578Z,21.30
2023-05-05T14:19:40.747Z,21.40
2023-05-05T14:22:07.513Z,21.40
2023-05-05T14:24:35.587Z,21.50
2023-05-05T14:27:04.411Z,21.50
2023-05-05T14:29:31.421Z,21.60
2023-05-05T14:31:58.390Z,21.60
2023-05-05T14:34:25.363Z,21.70
2023-05-05T14:36:52.321Z,21.80
2023-05-05T14:39:19.839Z,21.80
2023-05-05T14:41:47.174Z,21.90
2023-05-05T14:44:13.969Z,21.90
2023-05-05T14:46:44.682Z,22.00
2023-05-05T14:49:12.821Z,22.20
2023-05-05T14:51:39.621Z,22.50
2023-05-05T14:54:14.246Z,22.90
2023-05-05T14:56:50.462Z,23.40
2023-05-05T14:59:17.251Z,23.90
2023-05-05T15:01:44.303Z,24.30
2023-05-05T15:04:11.015Z,24.70
2023-05-05T15:06:37.914Z,25.10
2023-05-05T15:09:04.874Z,25.50
2023-05-05T15:11:31.710Z,25.60
2023-05-05T15:14:00.223Z,25.70
2023-05-05T15:16:27.062Z,25.70
2023-05-05T15:18:54.230Z,25.60
2023-05-05T15:21:21.386Z,25.60
2023-05-05T15:23:48.200Z,25.60
2023-05-05T15:26:15.399Z,25.60
2023-05-05T15:28:43.216Z,25.70
2023-05-05T15:31:10.159Z,25.80
2023-05-05T15:33:37.086Z,25.90
2023-05-05T15:36:03.931Z,25.90
2023-05-05T15:38:32.233Z,25.90
2023-05-05T15:40:59.769Z,26.10
2023-05-05T15:43:26.860Z,26.30
2023-05-05T15:45:54.149Z,26.40
2023-05-05T15:48:21.456Z,26.50
2023-05-05T15:50:48.122Z,26.70
2023-05-05T15:53:15.121Z,26.80
2023-05-05T15:55:41.899Z,26.70
2023-05-05T15:58:08.838Z,26.70
2023-05-05T16:00:35.601Z,26.60
2023-05-05T16:03:02.483Z,26.30
2023-05-05T16:05:29.583Z,26.20
2023-05-05T16:07:56.940Z,26.30
2023-05-05T16:10:23.839Z,26.80
2023-05-05T16:12:52.213Z,27.40
2023-05-05T16:15:19.092Z,28.00
2023-05-05T16:17:45.898Z,28.50
2023-05-05T16:20:13.806Z,29.00
2023-05-05T16:22:40.861Z,29.20
2023-05-05T16:25:08.274Z,29.30
2023-05-05T16:27:36.254Z,29.30
2023-05-05T16:30:03.236Z,29.40
2023-05-05T16:32:30.049Z,29.50
2023-05-05T16:34:57.046Z,29.70
2023-05-05T16:37:25.088Z,30.20
2023-05-05T16:39:51.948Z,30.70
2023-05-05T16:42:19.655Z,31.30
2023-05-05T16:44:46.507Z,31.70
2023-05-05T16:47:14.861Z,32.10
2023-05-05T16:49:41.574Z,32.50
2023-05-05T16:52:08.460Z,32.90
2023-05-05T16:54:35.170Z,33.10
2023-05-05T16:57:03.813Z,33.20
2023-05-05T16:59:31.689Z,33.40
2023-05-05T17:01:58.617Z,33.40
2023-05-05T17:04:26.169Z,33.50
2023-05-05T17:06:55.287Z,33.60
2023-05-05T17:09:27.849Z,33.50
2023-05-05T17:11:54.705Z,33.40
2023-05-05T17:14:21.756Z,33.20
2023-05-05T17:16:48.664Z,32.90
2023-05-05T17:19:15.545Z,32.50
2023-05-05T17:21:44.518Z,32.30
2023-05-05T17:24:11.707Z,31.90
2023-05-05T17:26:40.019Z,31.70
2023-05-05T17:29:07.126Z,31.50
2023-05-05T17:31:38.536Z,31.30
2023-05-05T17:34:05.456Z,31.10
2023-05-05T17:36:33.540Z,30.70
2023-05-05T17:39:00.579Z,30.30
2023-05-05T17:41:27.421Z,30.00
2023-05-05T17:43:54.263Z,29.60
2023-05-05T17:46:22.072Z,29.20
2023-05-05T17:48:49.047Z,28.80
2023-05-05T17:51:15.954Z,28.40
2023-05-05T17:53:43.936Z,28.20
2023-05-05T17:56:10.881Z,27.90
2023-05-05T17:58:37.740Z,27.70
2023-05-05T18:01:07.915Z,27.50
2023-05-05T18:03:40.077Z,27.20
2023-05-05T18:06:07.900Z,27.00
2023-05-05T18:08:34.726Z,26.80
2023-05-05T18:11:01.870Z,26.60
2023-05-05T18:13:28.896Z,26.50
2023-05-05T18:15:55.652Z,26.30
2023-05-05T18:18:22.528Z,26.30
2023-05-05T18:20:51.296Z,26.30
2023-05-05T18:23:18.661Z,26.30
2023-05-05T18:25:46.728Z,26.30
2023-05-05T18:28:13.691Z,26.20
2023-05-05T18:30:40.787Z,26.10
2023-05-05T18:33:07.597Z,26.00
2023-05-05T18:35:34.705Z,25.80
2023-05-05T18:38:01.758Z,25.60
2023-05-05T18:40:28.528Z,25.40
2023-05-05T18:42:56.076Z,25.20
2023-05-05T18:45:23.039Z,25.00
2023-05-05T18:47:50.246Z,24.80
2023-05-05T18:50:17.340Z,24.60
2023-05-05T18:52:44.575Z,24.50
2023-05-05T18:55:11.777Z,24.30
2023-05-05T18:57:39.109Z,24.10
2023-05-05T19:00:06.512Z,23.90
2023-05-05T19:02:33.703Z,23.70
2023-05-05T19:05:00.571Z,23.60
2023-05-05T19:07:35.380Z,23.50
2023-05-05T19:10:04.817Z,23.30
2023-05-05T19:12:31.878Z,23.10
2023-05-05T19:14:58.817Z,23.00
2023-05-05T19:17:26.057Z,22.90
2023-05-05T19:19:53.292Z,22.70
2023-05-05T19:22:23.072Z,22.50
2023-05-05T19:24:50.187Z,22.40
2023-05-05T19:27:17.375Z,22.20
2023-05-05T19:29:44.686Z,22.10
2023-05-05T19:32:12.842Z,22.00
2023-05-05T19:34:40.752Z,21.90
2023-05-05T19:37:07.623Z,21.90
2023-05-05T19:39:34.525Z,21.80
2023-05-05T19:42:01.791Z,21.60
2023-05-05T19:44:29.910Z,21.50
2023-05-05T19:46:59.159Z,21.40
2023-05-05T19:49:28.455Z,21.30
2023-05-05T19:51:56.391Z,21.30
2023-05-05T19:54:24.964Z,21.10
2023-05-05T19:56:52.031Z,21.00
2023-05-05T19:59:18.954Z,21.00
2023-05-05T20:01:45.982Z,20.90
2023-05-05T20:04:13.045Z,20.80
2023-05-05T20:06:40.134Z,20.80
2023-05-05T20:09:07.703Z,20.70
2023-05-05T20:11:35.779Z,20.60
2023-05-05T20:14:02.723Z,20.60
2023-05-05T20:16:29.600Z,20.50
2023-05-05T20:18:56.615Z,20.40
2023-05-05T20:21:23.559Z,20.40
2023-05-05T20:23:50.514Z,20.30
2023-05-05T20:26:17.399Z,20.30
2023-05-05T20:28:45.839Z,20.20
2023-05-05T20:31:14.893Z,20.10
2023-05-05T20:33:41.760Z,20.10
2023-05-05T20:36:08.664Z,20.00
2023-05-05T20:38:35.713Z,20.00
2023-05-05T20:41:02.602Z,19.90
2023-05-05T20:43:29.407Z,19.80
2023-05-05T20:45:56.243Z,19.80
2023-05-05T20:48:23.135Z,19.80
2023-05-05T20:50:51.261Z,19.80
2023-05-05T20:53:19.310Z,19.70
2023-05-05T20:55:46.495Z,19.70
2023-05-05T20:58:13.371Z,19.70
2023-05-05T21:00:40.539Z,19.70
2023-05-05T21:03:07.288Z,19.60
2023-05-05T21:05:34.419Z,19.60
2023-05-05T21:08:01.510Z,19.60
2023-05-05T21:10:29.546Z,19.60
2023-05-05T21:12:56.693Z,19.60
2023-05-05T21:15:23.795Z,19.50
2023-05-05T21:17:51.204Z,19.50
2023-05-05T21:20:18.948Z,19.40
2023-05-05T21:22:46.203Z,19.20
2023-05-05T21:25:18.706Z,19.20
2023-05-05T21:27:47.411Z,19.20
2023-05-05T21:30:14.588Z,19.20
2023-05-05T21:32:43.772Z,19.20
2023-05-05T21:35:15.209Z,19.20
2023-05-05T21:37:42.345Z,19.20
2023-05-05T21:40:13.936Z,19.10
2023-05-05T21:42:42.443Z,19.00
2023-05-05T21:45:11.964Z,18.90
2023-05-05T21:47:39.084Z,18.90
2023-05-05T21:50:06.630Z,18.80
2023-05-05T21:52:34.949Z,18.70
2023-05-05T21:55:02.037Z,18.70
2023-05-05T21:57:29.245Z,18.60
2023-05-05T21:59:56.304Z,18.50
2023-05-05T22:02:23.360Z,18.40
2023-05-05T22:04:53.312Z,18.30
2023-05-05T22:07:20.152Z,18.20
2023-05-05T22:09:47.304Z,18.20
2023-05-05T22:12:14.246Z,18.20
2023-05-05T22:14:41.043Z,18.20
2023-05-05T22:17:08.276Z,18.20
2023-05-05T22:19:37.480Z,18.20
2023-05-05T22:22:06.911Z,18.20
2023-05-05T22:24:33.691Z,18.20
2023-05-05T22:27:01.896Z,18.10
2023-05-05T22:29:28.758Z,18.10
2023-05-05T22:31:57.341Z,18.20
2023-05-05T22:34:25.918Z,18.10
2023-05-05T22:36:52.963Z,18.10
2023-05-05T22:39:20.202Z,18.10
2023-05-05T22:41:47.361Z,18.10
2023-05-05T22:44:15.477Z,18.10
2023-05-05T22:46:42.275Z,18.10
2023-05-05T22:49:09.677Z,18.10
2023-05-05T22:51:39.699Z,18.20
2023-05-05T22:54:06.501Z,18.20
2023-05-05T22:56:33.590Z,18.10
2023-05-05T22:59:00.399Z,18.20
2023-05-05T23:01:27.389Z,18.10
2023-05-05T23:03:54.474Z,18.00
2023-05-05T23:06:32.335Z,18.00
2023-05-05T23:08:59.868Z,18.00
2023-05-05T23:11:30.404Z,18.00
2023-05-05T23:13:57.319Z,18.00
2023-05-05T23:16:24.115Z,18.00
2023-05-05T23:19:00.371Z,18.00
2023-05-05T23:21:32.158Z,17.90
2023-05-05T23:24:03.152Z,17.80
2023-05-05T23:26:30.967Z,17.80
2023-05-05T23:29:02.287Z,17.80
2023-05-05T23:31:30.450Z,17.90
2023-05-05T23:33:57.303Z,17.90
2023-05-05T23:36:24.045Z,17.90
2023-05-05T23:38:51.169Z,17.90
2023-05-05T23:41:19.209Z,17.90
2023-05-05T23:43:46.271Z,17.90
2023-05-05T23:46:13.640Z,17.90
2023-05-05T23:48:40.558Z,17.90
2023-05-05T23:51:07.349Z,17.80
2023-05-05T23:53:34.193Z,17.70
2023-05-05T23:56:01.187Z,17.70
2023-05-05T23:58:28.016Z,17.70
